Time;durP1;ratioP1;P1;durP2;ratioP2;P2;SDS_P1;SDS_P2;PMS_P1;PMS_P2;Temp;Humidity;BMP_temperature;BMP_pressure;BME280_temperature;BME280_humidity;BME280_pressure;Samples;Min_cycle;Max_cycle;Signal;HPM_P1;HPM_P2
2024/03/04 00:00:59;;;;;;;20.13;10.02;;;;;;;7.36;79.23;100566.28;5069466;28;20063;-74
2024/03/04 00:03:27;;;;;;;17.15;10.23;;;;;;;7.31;79.46;100569.09;5080402;28;20140;-73
2024/03/04 00:05:54;;;;;;;17.90;9.45;;;;;;;7.14;80.37;100577.00;5067331;28;20053;-70
2024/03/04 00:08:25;;;;;;;17.05;9.95;;;;;;;7.25;80.50;100583.97;5080803;28;20056;-71
2024/03/04 00:10:52;;;;;;;16.20;9.23;;;;;;;7.17;80.43;100585.44;5067042;28;20562;-70
2024/03/04 00:13:22;;;;;;;20.73;9.73;;;;;;;7.35;80.11;100579.19;5067086;28;20091;-73
2024/03/04 00:15:50;;;;;;;16.42;10.10;;;;;;;7.29;79.99;100582.25;5066955;28;20045;-72
2024/03/04 00:18:17;;;;;;;15.32;9.18;;;;;;;7.63;79.19;100588.34;5066373;28;20048;-74
2024/03/04 00:20:48;;;;;;;19.15;10.05;;;;;;;7.48;79.02;100583.09;5048642;28;20056;-73
2024/03/04 00:23:19;;;;;;;12.80;8.60;;;;;;;7.39;79.59;100579.41;5065864;28;20052;-72
2024/03/04 00:25:46;;;;;;;15.68;8.35;;;;;;;7.56;78.93;100587.91;5056986;28;20055;-72
2024/03/04 00:28:14;;;;;;;17.33;8.30;;;;;;;7.65;78.40;100586.94;5073366;28;20048;-73
2024/03/04 00:30:42;;;;;;;12.75;7.65;;;;;;;7.45;78.29;100587.25;5068073;28;20063;-72
2024/03/04 00:33:12;;;;;;;15.05;7.18;;;;;;;7.31;78.94;100599.22;5066522;28;20064;-72
2024/03/04 00:35:39;;;;;;;15.50;7.85;;;;;;;7.31;79.74;100597.31;5066010;28;20049;-73
2024/03/04 00:38:09;;;;;;;;;;;;;;;7.35;79.79;100614.78;5051178;28;20053;-74
2024/03/04 00:40:36;;;;;;;15.70;8.57;;;;;;;7.29;79.71;100615.94;5067038;28;19924;-73
2024/03/04 00:43:04;;;;;;;11.13;7.35;;;;;;;6.99;80.17;100619.06;5065192;28;20067;-75
2024/03/04 00:45:32;;;;;;;14.88;7.78;;;;;;;6.94;81.13;100616.41;5035810;28;20058;-73
2024/03/04 00:47:59;;;;;;;16.75;7.53;;;;;;;7.18;80.49;100625.44;5064601;28;20266;-73
2024/03/04 00:50:27;;;;;;;13.38;7.60;;;;;;;7.14;80.11;100624.38;5044435;28;20053;-74
2024/03/04 00:52:55;;;;;;;13.98;7.43;;;;;;;7.20;80.62;100625.13;5063549;28;20052;-73
2024/03/04 00:55:23;;;;;;;12.77;7.82;;;;;;;7.24;80.18;100624.25;5066279;28;20056;-72
2024/03/04 00:57:51;;;;;;;13.30;7.72;;;;;;;6.78;81.89;100625.91;5066413;28;20045;-73
2024/03/04 01:00:18;;;;;;;15.15;7.85;;;;;;;6.76;82.61;100623.44;5065702;28;20054;-73
2024/03/04 01:02:45;;;;;;;13.50;8.02;;;;;;;6.88;82.13;100619.50;5066942;28;20053;-72
2024/03/04 01:05:15;;;;;;;18.45;8.55;;;;;;;7.00;81.80;100617.97;5065324;28;21016;-74
2024/03/04 01:07:44;;;;;;;15.05;7.97;;;;;;;7.13;80.91;100624.69;5066406;28;20044;-72
2024/03/04 01:10:12;;;;;;;15.95;8.18;;;;;;;7.25;79.71;100617.69;5066973;28;21638;-72
2024/03/04 01:12:39;;;;;;;15.90;7.22;;;;;;;7.34;79.63;100617.84;5049356;28;20052;-73
2024/03/04 01:15:08;;;;;;;14.40;7.20;;;;;;;6.67;80.49;100618.91;5066671;28;20064;-72
2024/03/04 01:17:36;;;;;;;12.35;6.85;;;;;;;6.79;81.10;100628.34;5068456;28;20388;-72
2024/03/04 01:20:04;;;;;;;13.60;7.82;;;;;;;6.66;80.90;100623.56;5065886;28;20044;-74
2024/03/04 01:22:31;;;;;;;14.30;6.68;;;;;;;6.69;81.31;100625.69;5049881;28;20056;-73
2024/03/04 01:25:00;;;;;;;14.23;7.10;;;;;;;6.57;81.61;100625.28;5064813;28;20048;-73
2024/03/04 01:27:27;;;;;;;16.02;6.60;;;;;;;6.71;81.13;100628.97;5065878;28;20052;-72
2024/03/04 01:29:55;;;;;;;11.68;6.82;;;;;;;6.85;80.93;100624.44;5065345;28;20506;-72
2024/03/04 01:32:24;;;;;;;14.82;6.40;;;;;;;6.94;81.09;100627.34;5046662;28;20281;-73
2024/03/04 01:34:51;;;;;;;9.93;6.57;;;;;;;6.87;80.66;100629.63;5067198;28;20095;-74
2024/03/04 01:37:19;;;;;;;17.08;6.60;;;;;;;6.71;80.67;100628.19;5076567;28;20066;-72
2024/03/04 01:39:47;;;;;;;11.85;6.63;;;;;;;6.84;81.01;100628.28;5067199;28;20079;-73
2024/03/04 01:42:14;;;;;;;13.10;6.40;;;;;;;6.92;80.45;100626.03;5065345;28;20052;-73
2024/03/04 01:44:41;;;;;;;11.32;6.38;;;;;;;6.92;80.64;100617.81;5065217;28;20056;-72
2024/03/04 01:47:11;;;;;;;14.38;6.97;;;;;;;6.87;81.16;100618.66;5065753;28;20098;-73
2024/03/04 01:49:38;;;;;;;12.32;7.30;;;;;;;6.84;81.63;100611.03;5065473;28;20060;-73
2024/03/04 01:52:06;;;;;;;13.65;7.30;;;;;;;6.85;80.86;100618.16;5066505;28;20056;-73
2024/03/04 01:54:35;;;;;;;16.00;6.85;;;;;;;6.57;81.79;100603.38;5057429;28;20048;-74
2024/03/04 01:57:03;;;;;;;11.52;6.40;;;;;;;6.58;83.01;100594.09;5066564;28;20553;-73
2024/03/04 01:59:32;;;;;;;12.43;6.45;;;;;;;6.52;82.80;100595.25;5064569;28;20056;-67
2024/03/04 02:02:02;;;;;;;17.08;6.65;;;;;;;6.58;83.14;100599.56;5063002;28;20044;-67
2024/03/04 02:04:30;;;;;;;15.43;7.18;;;;;;;6.58;82.74;100605.03;5069761;28;20555;-68
2024/03/04 02:06:59;;;;;;;10.77;6.35;;;;;;;6.71;82.86;100601.59;5067326;28;20047;-68
2024/03/04 02:09:27;;;;;;;12.93;6.65;;;;;;;6.65;82.77;100602.78;5068686;28;20048;-68
2024/03/04 02:11:54;;;;;;;12.20;6.00;;;;;;;6.74;82.76;100597.47;5068141;28;20063;-67
2024/03/04 02:14:23;;;;;;;14.68;6.93;;;;;;;6.53;83.27;100593.31;5051276;28;20056;-68
2024/03/04 02:16:51;;;;;;;15.50;6.88;;;;;;;6.56;83.49;100590.00;5069578;28;20063;-69
2024/03/04 02:19:20;;;;;;;11.15;6.65;;;;;;;6.72;83.27;100580.53;5069520;28;20048;-69
2024/03/04 02:21:55;;;;;;;12.07;6.63;;;;;;;6.61;83.39;100588.03;5068353;28;20052;-68
2024/03/04 02:24:23;;;;;;;13.27;6.35;;;;;;;6.60;83.70;100586.41;5068644;28;20048;-68
2024/03/04 02:26:50;;;;;;;13.93;7.35;;;;;;;6.73;83.44;100577.50;5031420;28;20052;-67
2024/03/04 02:29:18;;;;;;;11.93;6.88;;;;;;;6.73;83.04;100584.88;5064638;28;20091;-68
2024/03/04 02:31:46;;;;;;;13.23;6.82;;;;;;;6.43;83.97;100598.91;5052705;28;20595;-68
2024/03/04 02:34:16;;;;;;;16.65;7.95;;;;;;;6.23;85.21;100597.19;5053077;28;20053;-68
2024/03/04 02:36:43;;;;;;;14.57;8.20;;;;;;;6.34;85.24;100603.38;5065057;28;20056;-67
2024/03/04 02:39:11;;;;;;;14.10;8.07;;;;;;;6.50;85.15;100607.59;5051012;28;20052;-67
2024/03/04 02:41:39;;;;;;;13.57;6.93;;;;;;;6.48;84.84;100605.16;5052097;28;20063;-68
2024/03/04 02:44:06;;;;;;;11.50;6.75;;;;;;;6.55;85.06;100610.28;5043785;28;20051;-67
2024/03/04 02:46:34;;;;;;;12.93;7.47;;;;;;;6.57;84.63;100619.03;5067440;28;20056;-68
2024/03/04 02:49:02;;;;;;;17.85;7.38;;;;;;;6.44;85.23;100619.69;5065982;28;20052;-69
2024/03/04 02:51:31;;;;;;;11.40;6.38;;;;;;;6.49;85.44;100617.72;5057461;28;20479;-68
2024/03/04 02:53:58;;;;;;;10.93;7.25;;;;;;;6.54;84.82;100617.66;5069598;28;20052;-68
2024/03/04 02:56:26;;;;;;;15.27;7.57;;;;;;;6.29;86.17;100617.94;5067056;28;20052;-69
2024/03/04 02:58:53;;;;;;;14.48;7.28;;;;;;;6.39;86.22;100623.28;5069423;28;20056;-68
2024/03/04 03:01:20;;;;;;;12.52;6.50;;;;;;;6.42;85.99;100628.19;5069861;28;20049;-68
2024/03/04 03:03:48;;;;;;;11.80;6.50;;;;;;;6.44;86.50;100628.72;5067987;28;20053;-67
2024/03/04 03:06:15;;;;;;;13.55;6.75;;;;;;;6.51;85.46;100628.38;5068414;28;20062;-67
2024/03/04 03:08:43;;;;;;;11.88;6.72;;;;;;;6.46;85.43;100629.25;5069421;28;20064;-68
2024/03/04 03:11:13;;;;;;;12.90;6.75;;;;;;;6.61;85.46;100636.47;5067800;28;20048;-68
2024/03/04 03:13:41;;;;;;;13.05;6.40;;;;;;;6.43;85.39;100646.22;5070021;28;20068;-67
2024/03/04 03:16:20;;;;;;;14.48;6.88;;;;;;;6.46;85.77;100633.91;5069297;28;20566;-68
2024/03/04 03:18:48;;;;;;;12.25;6.60;;;;;;;6.44;86.09;100642.41;5049533;28;20604;-67
2024/03/04 03:21:15;;;;;;;14.70;6.55;;;;;;;6.61;85.66;100633.72;5054795;28;20490;-68
2024/03/04 03:23:44;;;;;;;12.48;6.32;;;;;;;6.71;85.19;100636.38;5073289;28;20053;-68
2024/03/04 03:26:12;;;;;;;12.93;7.20;;;;;;;6.12;86.20;100641.31;5067363;28;20048;-69
2024/03/04 03:28:40;;;;;;;14.48;7.00;;;;;;;6.28;86.89;100638.16;5067723;28;20052;-67
2024/03/04 03:31:08;;;;;;;14.52;6.80;;;;;;;6.50;86.62;100630.28;5067128;28;20538;-67
2024/03/04 03:33:36;;;;;;;14.85;6.78;;;;;;;6.48;86.14;100638.00;5050313;28;20505;-67
2024/03/04 03:36:05;;;;;;;13.73;7.13;;;;;;;6.20;87.08;100640.69;5068481;28;20048;-68
2024/03/04 03:38:34;;;;;;;16.55;7.10;;;;;;;6.14;87.16;100639.91;5068964;28;20059;-68
2024/03/04 03:41:03;;;;;;;12.77;6.57;;;;;;;5.89;88.32;100644.78;5067928;28;20041;-68
2024/03/04 03:43:30;;;;;;;14.27;7.35;;;;;;;5.53;90.43;100639.50;5068593;28;20605;-67
2024/03/04 03:45:58;;;;;;;14.30;7.13;;;;;;;6.02;90.05;100644.09;5067451;28;20534;-68
2024/03/04 03:48:25;;;;;;;13.07;7.07;;;;;;;6.19;88.57;100648.06;5069005;28;20053;-72
2024/03/04 03:50:53;;;;;;;11.38;6.55;;;;;;;6.12;88.41;100655.78;5068399;28;20851;-73
2024/03/04 03:53:22;;;;;;;13.23;6.65;;;;;;;6.34;87.83;100663.56;5050203;28;20059;-73
2024/03/04 03:55:50;;;;;;;12.20;7.05;;;;;;;5.89;89.73;100652.97;5066992;28;20048;-72
2024/03/04 03:58:18;;;;;;;16.10;6.80;;;;;;;6.24;89.73;100652.69;5068699;28;20049;-72
2024/03/04 04:00:46;;;;;;;15.70;7.32;;;;;;;6.11;89.11;100653.34;5067788;28;20052;-72
2024/03/04 04:03:13;;;;;;;15.30;7.22;;;;;;;6.33;88.63;100657.25;5067639;28;20055;-72
2024/03/04 04:05:40;;;;;;;12.27;6.93;;;;;;;6.29;87.47;100656.22;5049419;28;20060;-72
2024/03/04 04:08:08;;;;;;;16.00;6.90;;;;;;;6.39;87.10;100650.66;5067540;28;20055;-73
2024/03/04 04:10:35;;;;;;;13.82;7.25;;;;;;;6.47;87.21;100651.94;5065893;28;20059;-73
2024/03/04 04:13:03;;;;;;;11.90;5.75;;;;;;;6.29;87.62;100647.19;5067881;28;20063;-73
2024/03/04 04:15:30;;;;;;;14.10;6.57;;;;;;;6.21;88.19;100643.13;5068089;28;20072;-74
2024/03/04 04:17:58;;;;;;;13.75;6.95;;;;;;;6.24;87.87;100650.75;5067926;28;20051;-73
2024/03/04 04:20:27;;;;;;;14.13;6.45;;;;;;;6.22;87.58;100655.72;5048935;28;20059;-72
2024/03/04 04:22:54;;;;;;;12.38;6.57;;;;;;;6.19;88.53;100661.75;5066258;28;20052;-73
2024/03/04 04:25:21;;;;;;;9.75;6.03;;;;;;;6.36;88.09;100666.81;5032910;28;20547;-73
2024/03/04 04:27:49;;;;;;;11.82;6.40;;;;;;;6.17;88.07;100663.94;5066065;28;20067;-72
2024/03/04 04:30:16;;;;;;;12.18;6.82;;;;;;;6.24;88.20;100669.91;5055763;28;20133;-73
2024/03/04 04:32:44;;;;;;;13.05;6.68;;;;;;;6.22;87.88;100666.66;5067778;28;20302;-73
2024/03/04 04:35:12;;;;;;;14.65;6.63;;;;;;;6.10;89.07;100668.13;5070259;28;20052;-72
2024/03/04 04:37:44;;;;;;;13.32;7.15;;;;;;;6.18;88.96;100670.25;5069956;28;20048;-73
2024/03/04 04:40:18;;;;;;;13.77;6.43;;;;;;;6.11;89.31;100684.25;5069152;28;20048;-73
2024/03/04 04:42:45;;;;;;;10.50;5.60;;;;;;;6.02;89.03;100676.91;5068147;28;20057;-72
2024/03/04 04:45:13;;;;;;;14.05;6.63;;;;;;;5.87;89.98;100675.13;5069624;28;20048;-73
2024/03/04 04:47:40;;;;;;;10.55;6.45;;;;;;;6.01;89.48;100675.31;5046064;28;20131;-72
2024/03/04 04:50:08;;;;;;;10.10;6.18;;;;;;;6.03;89.23;100681.31;5060127;28;20061;-72
2024/03/04 04:52:35;;;;;;;13.40;6.60;;;;;;;6.16;88.86;100694.31;5067412;28;20048;-72
2024/03/04 04:55:03;;;;;;;12.65;6.25;;;;;;;6.00;88.89;100695.56;5060889;28;20048;-73
2024/03/04 04:57:30;;;;;;;12.85;6.00;;;;;;;5.85;89.72;100690.97;5067424;28;20057;-73
2024/03/04 04:59:58;;;;;;;10.52;5.97;;;;;;;5.82;89.40;100699.72;5064489;28;20232;-73
2024/03/04 05:02:25;;;;;;;12.95;6.18;;;;;;;5.88;90.69;100703.25;5067471;28;20048;-73
2024/03/04 05:04:53;;;;;;;13.40;5.90;;;;;;;6.29;88.97;100705.44;5064680;28;20060;-73
2024/03/04 05:07:25;;;;;;;16.33;6.35;;;;;;;6.33;88.32;100701.03;5065539;28;20577;-72
2024/03/04 05:09:53;;;;;;;10.57;6.07;;;;;;;6.20;87.98;100706.31;5057061;28;20056;-73
2024/03/04 05:12:21;;;;;;;13.35;5.82;;;;;;;6.08;88.52;100720.38;5067329;28;20049;-72
2024/03/04 05:14:49;;;;;;;12.13;6.13;;;;;;;6.07;88.69;100713.25;5066685;28;20052;-72
2024/03/04 05:17:17;;;;;;;12.70;5.82;;;;;;;6.25;88.49;100709.03;5066734;28;20052;-73
2024/03/04 05:19:45;;;;;;;13.40;6.18;;;;;;;6.18;88.19;100700.31;5065161;28;20045;-73
2024/03/04 05:22:13;;;;;;;12.45;5.43;;;;;;;6.03;88.59;100708.66;5067044;28;20036;-73
2024/03/04 05:24:41;;;;;;;13.05;5.72;;;;;;;6.16;88.93;100711.56;5065276;28;20052;-73
2024/03/04 05:27:08;;;;;;;14.23;5.93;;;;;;;5.98;88.56;100714.94;5066549;28;20052;-72
2024/03/04 05:29:36;;;;;;;13.07;6.13;;;;;;;6.01;89.23;100716.31;5065881;28;20049;-72
2024/03/04 05:32:04;;;;;;;14.63;6.00;;;;;;;6.10;88.64;100723.59;5068996;28;20049;-71
2024/03/04 05:34:35;;;;;;;12.40;5.72;;;;;;;6.08;88.63;100714.91;5067245;28;20068;-73
2024/03/04 05:37:02;;;;;;;13.50;6.07;;;;;;;6.18;88.53;100714.81;5066474;28;20056;-72
2024/03/04 05:39:31;;;;;;;16.65;6.45;;;;;;;6.31;87.92;100714.16;5069759;28;20044;-73
2024/03/04 05:41:59;;;;;;;12.38;5.72;;;;;;;6.33;87.69;100711.97;5071127;28;20214;-73
2024/03/04 05:44:27;;;;;;;13.98;6.20;;;;;;;6.17;87.44;100718.63;5068359;28;20049;-73
2024/03/04 05:46:55;;;;;;;10.98;5.47;;;;;;;6.18;88.11;100714.00;5064338;28;20041;-73
2024/03/04 05:49:23;;;;;;;13.60;5.82;;;;;;;6.16;88.21;100718.94;5068020;28;20067;-73
2024/03/04 05:51:52;;;;;;;10.00;5.38;;;;;;;6.12;88.01;100710.47;5081693;28;20040;-72
2024/03/04 05:54:22;;;;;;;13.35;5.85;;;;;;;6.16;88.53;100711.56;5078213;28;20052;-72
2024/03/04 05:56:49;;;;;;;8.65;5.35;;;;;;;6.17;88.57;100718.63;5069592;28;20072;-72
2024/03/04 05:59:17;;;;;;;12.65;5.57;;;;;;;6.26;88.08;100711.47;5070333;28;20056;-73
2024/03/04 06:01:45;;;;;;;14.52;6.15;;;;;;;5.97;88.40;100716.06;5069322;28;20051;-72
2024/03/04 06:04:12;;;;;;;14.75;6.10;;;;;;;5.93;89.44;100714.97;5069088;28;20079;-73
2024/03/04 06:06:40;;;;;;;10.05;5.57;;;;;;;6.16;88.70;100721.66;5069124;28;20044;-73
2024/03/04 06:09:08;;;;;;;14.65;6.05;;;;;;;6.18;88.17;100724.94;5068307;28;20048;-73
2024/03/04 06:11:36;;;;;;;13.50;5.88;;;;;;;6.30;88.16;100723.47;5064861;28;20053;-73
2024/03/04 06:14:03;;;;;;;12.48;5.82;;;;;;;6.15;88.16;100720.03;5060919;28;20052;-72
2024/03/04 06:16:31;;;;;;;11.10;5.65;;;;;;;5.98;88.83;100725.88;5068159;28;20073;-73
2024/03/04 06:18:58;;;;;;;14.43;6.18;;;;;;;6.03;89.19;100725.88;5067218;28;20052;-73
2024/03/04 06:21:26;;;;;;;10.27;5.65;;;;;;;6.18;88.53;100725.75;5068452;28;20044;-73
2024/03/04 06:23:53;;;;;;;10.93;5.45;;;;;;;5.92;90.31;100720.72;5051417;28;20048;-73
2024/03/04 06:26:21;;;;;;;13.57;5.57;;;;;;;6.12;89.28;100726.88;5043599;28;20045;-73
2024/03/04 06:28:48;;;;;;;12.80;6.68;;;;;;;6.03;89.42;100727.78;5044924;28;20582;-72
2024/03/04 06:31:16;;;;;;;15.20;5.63;;;;;;;5.69;91.36;100724.94;5067684;28;20049;-72
2024/03/04 06:33:43;;;;;;;12.52;5.60;;;;;;;5.69;91.71;100735.84;5069023;28;20044;-72
2024/03/04 06:36:20;;;;;;;11.43;5.72;;;;;;;5.68;93.30;100734.22;5068027;28;20044;-71
2024/03/04 06:38:48;;;;;;;13.68;5.30;;;;;;;6.07;91.27;100739.75;5067040;28;20041;-72
2024/03/04 06:41:17;;;;;;;17.90;10.27;;;;;;;6.25;90.29;100731.72;5045559;28;20052;-73
2024/03/04 06:43:44;;;;;;;11.60;6.53;;;;;;;6.41;89.10;100730.53;5069018;28;20054;-73
2024/03/04 06:46:12;;;;;;;14.75;7.20;;;;;;;6.40;88.99;100725.31;5067590;28;20045;-72
2024/03/04 06:48:39;;;;;;;12.05;5.35;;;;;;;6.22;88.82;100737.78;5057449;28;20048;-72
2024/03/04 06:51:07;;;;;;;13.07;6.13;;;;;;;5.64;90.87;100727.69;5067846;28;20155;-72
2024/03/04 06:53:34;;;;;;;12.38;5.88;;;;;;;5.77;92.40;100731.72;5066826;28;20048;-72
2024/03/04 06:56:03;;;;;;;14.23;6.47;;;;;;;6.15;91.30;100729.06;5068963;28;20633;-72
2024/03/04 06:58:31;;;;;;;15.85;7.07;;;;;;;5.97;91.20;100737.94;5066918;28;20045;-73
2024/03/04 07:00:58;;;;;;;18.00;6.70;;;;;;;5.93;91.43;100734.13;5033853;28;20060;-72
2024/03/04 07:03:26;;;;;;;15.95;6.68;;;;;;;6.18;90.94;100736.69;5047057;28;20049;-73
2024/03/04 07:05:53;;;;;;;11.15;6.47;;;;;;;6.17;89.73;100745.19;5047296;28;20057;-72
2024/03/04 07:08:21;;;;;;;13.68;6.90;;;;;;;6.28;90.02;100744.00;5065828;28;20052;-73
2024/03/04 07:10:49;;;;;;;15.52;7.47;;;;;;;6.13;89.97;100752.31;5066989;28;20057;-73
2024/03/04 07:13:17;;;;;;;15.52;7.72;;;;;;;6.05;90.37;100742.78;5062618;28;20052;-73
2024/03/04 07:15:45;;;;;;;14.60;7.50;;;;;;;6.23;90.29;100746.78;5066917;28;20274;-73
2024/03/04 07:18:12;;;;;;;17.83;7.82;;;;;;;6.10;90.58;100750.94;5065728;28;20055;-72
2024/03/04 07:20:40;;;;;;;15.68;7.43;;;;;;;6.40;90.29;100753.50;5066729;28;20056;-71
2024/03/04 07:23:08;;;;;;;15.70;7.13;;;;;;;6.58;88.75;100761.03;5065236;28;20063;-73
2024/03/04 07:25:35;;;;;;;15.40;7.45;;;;;;;6.76;88.22;100757.56;5048384;28;20586;-72
2024/03/04 07:28:03;;;;;;;15.23;7.32;;;;;;;6.50;87.86;100758.88;5067584;28;20048;-74
2024/03/04 07:30:31;;;;;;;19.33;7.10;;;;;;;6.46;88.67;100763.31;5067927;28;20060;-73
2024/03/04 07:32:58;;;;;;;15.73;6.85;;;;;;;6.53;89.21;100760.25;5058284;28;20049;-73
2024/03/04 07:35:26;;;;;;;10.18;6.47;;;;;;;6.65;88.36;100766.16;5066871;28;20056;-73
2024/03/04 07:37:53;;;;;;;13.43;6.97;;;;;;;6.83;88.41;100781.91;5067470;28;20526;-73
2024/03/04 07:40:21;;;;;;;14.60;7.22;;;;;;;6.97;87.31;100774.66;5066026;28;20053;-72
2024/03/04 07:42:48;;;;;;;17.40;6.78;;;;;;;6.93;87.17;100776.31;5038509;28;20059;-73
2024/03/04 07:45:15;;;;;;;13.75;6.70;;;;;;;7.01;86.38;100772.94;5068612;28;20048;-73
2024/03/04 07:47:43;;;;;;;14.63;7.72;;;;;;;7.19;85.91;100772.22;5067040;28;20049;-72
2024/03/04 07:50:10;;;;;;;18.20;8.45;;;;;;;7.10;85.75;100765.75;5049671;28;20064;-73
2024/03/04 07:52:38;;;;;;;17.33;8.98;;;;;;;7.03;86.08;100770.75;5047008;28;20068;-73
2024/03/04 07:55:08;;;;;;;23.23;10.32;;;;;;;6.84;87.19;100769.81;5047534;28;20064;-72
2024/03/04 07:57:36;;;;;;;21.58;11.15;;;;;;;6.98;87.55;100772.69;5060106;28;20052;-72
2024/03/04 08:00:03;;;;;;;21.95;10.23;;;;;;;6.96;86.67;100783.94;5068087;28;20396;-72
2024/03/04 08:02:37;;;;;;;18.75;9.68;;;;;;;6.79;86.82;100787.13;5053693;28;20408;-72
2024/03/04 08:05:05;;;;;;;26.30;13.87;;;;;;;7.06;86.12;100792.06;5059920;28;20540;-73
2024/03/04 08:07:38;;;;;;;17.80;8.93;;;;;;;6.96;86.35;100794.09;5067984;28;20049;-73
2024/03/04 08:10:09;;;;;;;17.92;8.63;;;;;;;7.00;86.15;100793.22;5059419;28;20068;-73
2024/03/04 08:12:37;;;;;;;17.98;8.27;;;;;;;7.20;86.20;100779.31;5070951;28;20056;-73
2024/03/04 08:15:05;;;;;;;17.70;7.50;;;;;;;7.10;85.83;100789.56;5057042;28;20051;-72
2024/03/04 08:17:33;;;;;;;16.77;7.82;;;;;;;7.09;85.11;100797.00;5056013;28;20049;-71
2024/03/04 08:20:01;;;;;;;16.00;8.43;;;;;;;7.36;84.68;100791.75;5055885;28;20045;-72
2024/03/04 08:22:32;;;;;;;18.25;7.57;;;;;;;7.27;84.21;100789.97;5061395;28;20060;-71
2024/03/04 08:24:59;;;;;;;15.70;7.28;;;;;;;7.18;84.53;100787.03;5068190;28;20059;-72
2024/03/04 08:27:27;;;;;;;18.42;7.45;;;;;;;7.06;84.89;100786.59;5057955;28;20048;-71
2024/03/04 08:29:54;;;;;;;18.05;7.22;;;;;;;7.51;84.17;100790.78;5069372;28;20051;-72
2024/03/04 08:32:21;;;;;;;15.55;6.40;;;;;;;7.55;83.70;100789.13;5065683;28;20044;-72
2024/03/04 08:34:49;;;;;;;13.63;6.72;;;;;;;7.63;82.80;100785.72;5068062;28;20059;-72
2024/03/04 08:37:17;;;;;;;18.63;6.90;;;;;;;7.33;83.00;100795.09;5069432;28;20040;-72
2024/03/04 08:39:47;;;;;;;14.82;6.47;;;;;;;7.61;82.73;100776.97;5050477;28;20056;-72
2024/03/04 08:42:17;;;;;;;;;;;;;;;7.58;81.96;100780.31;5069776;28;20044;-72
2024/03/04 08:44:44;;;;;;;16.70;6.25;;;;;;;7.46;83.38;100777.16;5061812;28;20021;-73
2024/03/04 08:47:12;;;;;;;16.98;6.93;;;;;;;7.49;83.07;100785.59;5063559;28;20055;-73
2024/03/04 08:49:39;;;;;;;16.45;6.88;;;;;;;7.61;82.72;100775.06;5060681;28;20060;-73
2024/03/04 08:52:07;;;;;;;14.77;6.45;;;;;;;7.80;81.90;100783.31;5057741;28;20063;-72
2024/03/04 08:54:34;;;;;;;18.42;7.45;;;;;;;7.93;81.15;100785.34;5068537;28;20064;-73
2024/03/04 08:57:02;;;;;;;18.02;7.30;;;;;;;8.35;79.79;100779.81;5057523;28;20159;-73
2024/03/04 08:59:30;;;;;;;14.88;7.10;;;;;;;7.93;79.74;100771.63;5055498;28;20513;-72
2024/03/04 09:01:57;;;;;;;15.10;6.50;;;;;;;7.91;79.95;100774.66;5058707;28;20060;-74
2024/03/04 09:04:25;;;;;;;14.23;7.03;;;;;;;8.36;79.19;100766.94;5065901;28;20048;-73
2024/03/04 09:06:52;;;;;;;17.35;7.38;;;;;;;8.30;78.84;100766.19;5067878;28;20041;-71
2024/03/04 09:09:20;;;;;;;20.13;8.25;;;;;;;8.62;78.27;100758.00;5066060;28;20053;-72
2024/03/04 09:11:48;;;;;;;21.05;8.15;;;;;;;8.50;77.08;100773.28;5055522;28;20056;-71
2024/03/04 09:14:16;;;;;;;17.17;7.70;;;;;;;8.30;78.02;100766.19;5061133;28;20052;-74
2024/03/04 09:16:43;;;;;;;14.40;6.93;;;;;;;8.32;78.34;100766.69;5057993;28;20063;-70
2024/03/04 09:19:11;;;;;;;14.32;6.78;;;;;;;8.38;78.34;100764.69;5072335;28;20071;-71
2024/03/04 09:21:38;;;;;;;14.25;6.80;;;;;;;8.38;78.06;100771.03;5078170;28;20542;-71
2024/03/04 09:24:05;;;;;;;19.67;6.57;;;;;;;8.23;78.72;100773.13;5058878;28;20463;-71
2024/03/04 09:26:33;;;;;;;11.23;6.53;;;;;;;8.60;78.11;100773.94;5068550;28;20047;-70
2024/03/04 09:29:01;;;;;;;21.38;6.75;;;;;;;8.89;76.94;100771.03;5056099;28;20044;-71
2024/03/04 09:31:29;;;;;;;13.85;5.82;;;;;;;9.10;75.73;100775.00;5052951;28;20049;-71
2024/03/04 09:33:57;;;;;;;14.25;6.32;;;;;;;9.29;74.86;100769.47;5059043;28;20041;-72
2024/03/04 09:36:24;;;;;;;15.27;6.28;;;;;;;9.44;74.35;100767.25;5066563;28;20514;-71
2024/03/04 09:38:51;;;;;;;17.27;6.75;;;;;;;9.18;74.20;100773.50;5066198;28;20055;-71
2024/03/04 09:41:18;;;;;;;17.48;6.32;;;;;;;9.13;73.92;100774.44;5064756;28;20052;-70
2024/03/04 09:43:46;;;;;;;16.67;5.57;;;;;;;9.48;73.74;100761.94;5057097;28;20067;-76
2024/03/04 09:46:17;;;;;;;12.95;4.63;;;;;;;9.52;71.68;100774.78;5063518;28;20060;-71
2024/03/04 09:48:46;;;;;;;13.68;5.20;;;;;;;9.76;71.76;100771.81;5055114;28;20409;-71
2024/03/04 09:51:16;;;;;;;16.15;3.40;;;;;;;9.38;70.34;100762.16;5056541;28;20061;-71
2024/03/04 09:53:44;;;;;;;18.20;3.60;;;;;;;9.64;70.26;100766.81;5045607;28;20053;-71
2024/03/04 09:56:11;;;;;;;19.52;2.70;;;;;;;9.40;68.09;100765.38;5060546;28;20062;-70
2024/03/04 09:58:39;;;;;;;13.38;2.22;;;;;;;9.48;67.30;100767.44;5066609;28;20056;-71
2024/03/04 10:01:06;;;;;;;17.25;2.55;;;;;;;9.86;66.72;100757.84;5050043;28;20053;-67
2024/03/04 10:03:35;;;;;;;12.65;2.08;;;;;;;9.97;65.70;100760.06;5067704;28;20044;-72
2024/03/04 10:06:05;;;;;;;11.70;2.05;;;;;;;10.11;64.76;100755.38;5058978;28;20059;-72
2024/03/04 10:08:32;;;;;;;14.57;2.05;;;;;;;9.97;63.45;100759.28;5032523;28;20052;-71
2024/03/04 10:11:00;;;;;;;11.52;2.30;;;;;;;9.99;63.80;100757.00;5080294;28;20083;-71
2024/03/04 10:13:28;;;;;;;22.33;2.38;;;;;;;10.24;63.54;100748.22;5076955;28;20055;-70
2024/03/04 10:15:55;;;;;;;13.93;2.35;;;;;;;10.44;63.45;100749.69;5080015;28;20052;-70
2024/03/04 10:18:23;;;;;;;14.32;2.65;;;;;;;10.28;62.56;100757.50;5086073;28;20052;-70
2024/03/04 10:20:55;;;;;;;8.85;1.98;;;;;;;10.52;62.49;100754.44;5080085;28;20423;-71
2024/03/04 10:23:23;;;;;;;8.75;1.73;;;;;;;10.39;61.87;100761.63;5078204;28;20041;-73
2024/03/04 10:26:06;;;;;;;8.32;2.17;;;;;;;10.39;61.79;100758.06;5071653;28;20055;-71
2024/03/04 10:28:41;;;;;;;9.07;2.58;;;;;;;10.44;61.23;100746.94;5077511;28;20056;-71
2024/03/04 10:31:10;;;;;;;14.25;2.63;;;;;;;10.62;61.21;100751.44;5074252;28;20056;-71
2024/03/04 10:33:40;;;;;;;9.85;2.50;;;;;;;10.60;61.82;100742.69;5076330;28;20060;-73
2024/03/04 10:36:18;;;;;;;10.60;2.53;;;;;;;10.48;61.45;100740.50;5074100;28;20056;-71
2024/03/04 10:38:49;;;;;;;10.68;2.90;;;;;;;10.53;61.36;100747.84;5077196;28;20048;-70
2024/03/04 10:41:20;;;;;;;11.20;2.38;;;;;;;10.18;61.27;100741.22;5081304;28;20052;-71
2024/03/04 10:43:48;;;;;;;9.35;2.03;;;;;;;10.36;60.18;100742.97;5073033;28;20040;-72
2024/03/04 10:46:16;;;;;;;8.20;2.47;;;;;;;10.55;60.39;100740.88;5069646;28;20068;-72
2024/03/04 10:48:47;;;;;;;8.88;2.47;;;;;;;10.59;60.34;100735.53;5068928;28;20654;-69
2024/03/04 10:51:15;;;;;;;8.63;2.40;;;;;;;10.37;59.82;100735.53;5063953;28;20074;-71
2024/03/04 10:53:43;;;;;;;8.52;2.47;;;;;;;10.47;60.69;100735.28;5069181;28;20055;-70
2024/03/04 10:56:14;;;;;;;8.90;1.90;;;;;;;10.34;59.61;100730.66;5069045;28;20053;-70
2024/03/04 10:58:43;;;;;;;12.52;2.22;;;;;;;10.65;58.79;100734.31;5067561;28;20056;-71
2024/03/04 11:01:17;;;;;;;6.18;1.58;;;;;;;10.75;58.52;100726.59;5073375;28;20044;-71
2024/03/04 11:03:55;;;;;;;11.73;5.03;;;;;;;10.81;57.99;100728.09;5081281;28;20052;-71
2024/03/04 11:06:23;;;;;;;11.25;3.97;;;;;;;10.75;57.47;100723.84;5066246;28;20053;-70
2024/03/04 11:08:55;;;;;;;14.18;4.07;;;;;;;10.78;57.90;100725.97;5072454;28;20083;-70
2024/03/04 11:11:38;;;;;;;16.58;6.53;;;;;;;10.96;57.71;100722.19;5054196;28;20037;-71
2024/03/04 11:14:08;;;;;;;13.60;3.88;;;;;;;10.74;57.31;100716.69;5067021;28;20049;-71
2024/03/04 11:16:58;;;;;;;6.10;2.40;;;;;;;10.63;57.73;100720.84;5079936;28;20062;-71
2024/03/04 11:19:37;;;;;;;11.52;3.33;;;;;;;11.07;57.66;100720.78;5068494;28;20056;-71
2024/03/04 11:22:06;;;;;;;5.28;2.40;;;;;;;10.96;57.34;100711.19;5069446;28;20056;-70
2024/03/04 11:24:34;;;;;;;10.30;2.60;;;;;;;11.04;57.74;100715.91;5057286;28;20127;-71
2024/03/04 11:27:03;;;;;;;7.65;2.28;;;;;;;11.34;57.92;100708.75;5067036;28;20268;-69
2024/03/04 11:29:31;;;;;;;8.45;2.80;;;;;;;11.38;57.06;100703.41;5072084;28;20540;-68